Time;durP1;ratioP1;P1;durP2;ratioP2;P2;SDS_P1;SDS_P2;PMS_P1;PMS_P2;Temp;Humidity;BMP_temperature;BMP_pressure;BME280_temperature;BME280_humidity;BME280_pressure;Samples;Min_cycle;Max_cycle;Signal;HPM_P1;HPM_P2
2022/06/21 00:01:35;;;;;;;21.33;5.93;;;25.80;95.20;;;;;;5063846;28;20221;-52
2022/06/21 00:04:02;;;;;;;16.05;5.55;;;25.80;95.10;;;;;;5062586;28;20380;-47
2022/06/21 00:06:28;;;;;;;20.63;6.00;;;25.80;95.10;;;;;;5064601;28;20317;-48
2022/06/21 00:08:55;;;;;;;18.90;6.13;;;25.80;95.30;;;;;;5061940;28;20260;-54
2022/06/21 00:11:31;;;;;;;20.05;5.47;;;25.80;95.30;;;;;;5061524;28;20066;-50
2022/06/21 00:13:59;;;;;;;17.13;5.90;;;25.80;95.30;;;;;;5063777;28;20032;-50
2022/06/21 00:16:28;;;;;;;11.80;4.75;;;25.80;95.30;;;;;;5064185;28;20025;-55
2022/06/21 00:18:55;;;;;;;17.40;5.70;;;25.80;95.20;;;;;;5063095;28;20021;-49
2022/06/21 00:21:30;;;;;;;11.73;5.65;;;25.80;95.20;;;;;;5061409;28;20025;-56
2022/06/21 00:23:57;;;;;;;14.15;5.95;;;25.80;95.20;;;;;;5061008;28;20305;-50
2022/06/21 00:26:26;;;;;;;19.65;6.32;;;25.80;95.10;;;;;;5060113;28;20281;-47
2022/06/21 00:28:52;;;;;;;15.15;5.68;;;25.70;95.20;;;;;;5061321;28;20189;-49
2022/06/21 00:31:28;;;;;;;27.80;5.82;;;25.70;95.20;;;;;;5064406;28;20025;-49
2022/06/21 00:33:56;;;;;;;18.40;5.32;;;25.80;95.30;;;;;;5062095;28;20029;-50
2022/06/21 00:36:35;;;;;;;17.02;5.18;;;25.80;95.40;;;;;;5059922;28;20044;-53
2022/06/21 00:39:05;;;;;;;14.43;6.03;;;25.70;95.30;;;;;;5058116;28;20130;-47
2022/06/21 00:41:39;;;;;;;19.40;6.50;;;25.70;95.40;;;;;;5058755;28;20174;-51
2022/06/21 00:44:11;;;;;;;15.40;5.97;;;25.70;95.50;;;;;;5063326;28;20296;-51
2022/06/21 00:46:48;;;;;;;23.40;6.13;;;25.70;95.60;;;;;;5065292;28;20070;-54
2022/06/21 00:49:26;;;;;;;22.58;6.60;;;25.60;95.70;;;;;;5066455;28;20035;-51
2022/06/21 00:52:27;;;;;;;28.42;6.63;;;25.60;95.70;;;;;;5063863;28;20017;-49
2022/06/21 00:55:01;;;;;;;18.25;5.82;;;25.60;95.80;;;;;;5056271;28;20044;-50
2022/06/21 00:57:36;;;;;;;16.30;5.20;;;25.50;95.70;;;;;;5064885;28;20085;-48
2022/06/21 01:00:30;;;;;;;17.50;5.30;;;25.60;95.70;;;;;;5058304;28;20052;-52
2022/06/21 01:02:59;;;;;;;15.93;5.15;;;25.50;95.70;;;;;;5062591;28;20019;-51
2022/06/21 01:05:31;;;;;;;19.77;4.90;;;25.50;95.80;;;;;;5061380;28;20021;-55
2022/06/21 01:07:58;;;;;;;16.70;5.40;;;25.50;95.80;;;;;;5063868;28;20017;-50
2022/06/21 01:10:26;;;;;;;15.05;5.28;;;25.50;95.90;;;;;;5064333;28;20035;-51
2022/06/21 01:12:58;;;;;;;14.00;4.78;;;25.50;95.80;;;;;;5059761;28;20063;-56
2022/06/21 01:15:35;;;;;;;19.13;4.68;;;25.50;96.00;;;;;;5060922;28;20024;-49
2022/06/21 01:18:06;;;;;;;12.98;4.22;;;25.40;95.90;;;;;;5060773;28;20028;-55
2022/06/21 01:20:35;;;;;;;14.17;4.40;;;25.40;96.00;;;;;;5063502;28;20029;-54
2022/06/21 01:23:10;;;;;;;15.80;4.68;;;25.40;96.10;;;;;;5063057;28;20462;-50
2022/06/21 01:26:04;;;;;;;14.15;4.05;;;25.40;96.00;;;;;;5065152;28;20025;-55
2022/06/21 01:28:33;;;;;;;17.25;4.10;;;25.40;96.10;;;;;;5063369;28;20190;-56
2022/06/21 01:31:01;;;;;;;15.18;4.32;;;25.40;96.20;;;;;;5061324;28;20143;-55
2022/06/21 01:33:36;;;;;;;15.10;4.20;;;25.40;96.10;;;;;;5063311;28;20025;-50
2022/06/21 01:36:18;;;;;;;16.52;3.80;;;25.40;96.10;;;;;;5062859;28;20016;-55
2022/06/21 01:38:53;;;;;;;15.20;4.13;;;25.40;96.10;;;;;;5065526;28;20021;-51
2022/06/21 01:41:27;;;;;;;14.82;3.95;;;25.40;96.20;;;;;;5060858;28;20209;-54
2022/06/21 01:43:59;;;;;;;13.90;3.78;;;25.40;96.20;;;;;;5063586;28;20029;-49
2022/06/21 01:46:31;;;;;;;14.33;4.17;;;25.30;96.20;;;;;;5062966;28;20040;-52
2022/06/21 01:49:06;;;;;;;18.73;4.22;;;25.40;96.20;;;;;;5060229;28;20440;-48
2022/06/21 01:51:44;;;;;;;17.65;4.15;;;25.40;96.20;;;;;;5062693;28;20352;-49
2022/06/21 01:54:14;;;;;;;13.38;3.67;;;25.30;96.10;;;;;;5061761;28;20311;-52
2022/06/21 01:56:41;;;;;;;17.52;3.92;;;25.30;96.10;;;;;;5060431;28;20045;-48
2022/06/21 01:59:28;;;;;;;21.48;4.32;;;25.30;96.10;;;;;;5063529;28;20032;-54
2022/06/21 02:02:03;;;;;;;19.10;4.53;;;25.30;96.10;;;;;;5041516;28;20041;-51
2022/06/21 02:04:40;;;;;;;18.15;3.90;;;25.30;96.00;;;;;;5040628;28;20306;-48
2022/06/21 02:07:10;;;;;;;16.75;4.30;;;25.30;96.00;;;;;;5039458;28;20051;-53
2022/06/21 02:10:07;;;;;;;13.85;4.10;;;25.30;96.00;;;;;;5038691;28;20238;-46
2022/06/21 02:12:36;;;;;;;22.33;4.53;;;25.30;96.10;;;;;;5030692;28;20064;-47
2022/06/21 02:15:07;;;;;;;18.05;3.88;;;25.30;96.10;;;;;;5041578;28;20107;-52
2022/06/21 02:17:41;;;;;;;15.30;4.15;;;25.30;96.10;;;;;;5039321;28;20053;-54
2022/06/21 02:20:29;;;;;;;17.42;4.15;;;25.30;96.10;;;;;;5036816;28;20029;-48
2022/06/21 02:22:55;;;;;;;17.77;3.97;;;25.30;96.10;;;;;;5036222;28;20053;-50
2022/06/21 02:25:25;;;;;;;15.85;3.97;;;25.20;96.20;;;;;;5041571;28;20063;-55
2022/06/21 02:27:59;;;;;;;21.58;4.82;;;25.20;96.30;;;;;;5042016;28;20033;-61
2022/06/21 02:30:27;;;;;;;18.02;4.32;;;25.30;96.30;;;;;;5040612;28;20040;-54
2022/06/21 02:32:55;;;;;;;18.42;4.38;;;25.20;96.20;;;;;;5053257;28;20194;-54
2022/06/21 02:35:39;;;;;;;14.35;3.90;;;25.30;96.10;;;;;;5063908;28;20075;-57
2022/06/21 02:38:17;;;;;;;17.20;4.15;;;25.30;96.10;;;;;;5064220;28;20016;-53
2022/06/21 02:40:51;;;;;;;19.77;4.18;;;25.30;96.00;;;;;;5063950;28;20209;-55
2022/06/21 02:43:41;;;;;;;13.10;4.00;;;25.40;96.00;;;;;;5064197;28;20020;-56
2022/06/21 02:46:13;;;;;;;14.25;3.63;;;25.40;96.00;;;;;;5064065;28;20063;-54
2022/06/21 02:48:45;;;;;;;16.25;3.78;;;25.40;95.90;;;;;;5064255;28;20088;-62
2022/06/21 02:51:17;;;;;;;17.75;3.58;;;25.40;95.90;;;;;;5063638;28;20070;-56
2022/06/21 02:53:59;;;;;;;20.63;3.88;;;25.40;95.90;;;;;;5064314;28;20016;-54
2022/06/21 02:56:38;;;;;;;10.85;3.55;;;25.40;95.90;;;;;;5063734;28;20024;-56
2022/06/21 02:59:05;;;;;;;14.55;3.90;;;25.40;95.90;;;;;;5064101;28;20335;-54
2022/06/21 03:01:39;;;;;;;15.52;4.00;;;25.40;95.80;;;;;;5063814;28;20035;-59
2022/06/21 03:04:07;;;;;;;12.88;3.67;;;25.40;95.80;;;;;;5064090;28;20025;-53
2022/06/21 03:06:34;;;;;;;17.05;4.38;;;25.50;95.80;;;;;;5063694;28;20078;-55
2022/06/21 03:09:09;;;;;;;22.75;4.63;;;25.50;95.80;;;;;;5064000;28;20363;-57
2022/06/21 03:11:39;;;;;;;25.00;4.20;;;25.40;95.70;;;;;;5063587;28;20130;-57
2022/06/21 03:14:11;;;;;;;17.52;4.15;;;25.50;95.70;;;;;;5063551;28;20024;-56
2022/06/21 03:16:38;;;;;;;19.20;3.97;;;25.50;95.70;;;;;;5063648;28;20301;-56
2022/06/21 03:19:15;;;;;;;18.23;4.22;;;25.50;95.70;;;;;;5064014;28;20033;-56
2022/06/21 03:21:42;;;;;;;20.60;4.50;;;25.50;95.70;;;;;;5063479;28;20041;-58
2022/06/21 03:24:16;;;;;;;11.48;3.92;;;25.50;95.70;;;;;;5063292;28;20029;-56
2022/06/21 03:26:48;;;;;;;17.30;4.07;;;25.50;95.70;;;;;;5063473;28;20037;-55
2022/06/21 03:29:15;;;;;;;11.48;3.60;;;25.50;95.60;;;;;;5063375;28;20025;-56
2022/06/21 03:31:48;;;;;;;17.38;4.07;;;25.50;95.70;;;;;;5063404;28;20092;-54
2022/06/21 03:34:18;;;;;;;16.90;3.72;;;25.50;95.70;;;;;;5063771;28;20024;-53
2022/06/21 03:36:45;;;;;;;14.10;3.88;;;25.50;95.70;;;;;;5063415;28;20036;-54
2022/06/21 03:42:10;;;;;;;15.50;4.22;;;25.50;95.70;;;;;;5062294;28;20024;-54
2022/06/21 03:45:05;;;;;;;13.27;3.78;;;25.50;95.70;;;;;;5063151;28;20040;-55
2022/06/21 03:47:40;;;;;;;11.02;3.42;;;25.50;95.70;;;;;;5056371;28;20062;-53
2022/06/21 03:50:36;;;;;;;18.88;4.07;;;25.50;95.70;;;;;;5063012;28;20036;-54
2022/06/21 03:53:10;;;;;;;11.77;4.47;;;25.50;95.70;;;;;;5062317;28;20313;-55
2022/06/21 03:55:50;;;;;;;11.25;4.40;;;25.50;95.70;;;;;;5063453;28;20040;-55
2022/06/21 03:58:39;;;;;;;15.85;4.47;;;25.50;95.70;;;;;;5063464;28;20213;-55
2022/06/21 04:01:18;;;;;;;16.70;4.10;;;25.50;95.80;;;;;;5051998;28;20045;-51
2022/06/21 04:04:14;;;;;;;13.68;4.13;;;25.50;95.80;;;;;;5063454;28;20017;-59
2022/06/21 04:06:56;;;;;;;14.30;4.43;;;25.50;95.80;;;;;;5063161;28;20075;-54
2022/06/21 04:09:46;;;;;;;15.90;4.63;;;25.50;96.00;;;;;;5063670;28;20040;-54
2022/06/21 04:12:19;;;;;;;13.70;3.90;;;25.50;95.80;;;;;;5062858;28;20144;-53
2022/06/21 04:14:49;;;;;;;13.25;4.25;;;25.50;95.90;;;;;;5063197;28;20037;-52
2022/06/21 04:17:25;;;;;;;13.30;3.95;;;25.50;95.80;;;;;;5063175;28;20013;-55
2022/06/21 04:19:55;;;;;;;14.77;4.22;;;25.50;95.90;;;;;;5063028;28;20033;-55
2022/06/21 04:22:26;;;;;;;13.63;3.92;;;25.50;95.80;;;;;;5063135;28;20100;-56
2022/06/21 04:24:56;;;;;;;15.02;4.15;;;25.50;95.80;;;;;;5062879;28;20020;-53
2022/06/21 04:27:52;;;;;;;13.00;3.60;;;25.50;95.80;;;;;;5064729;28;20178;-57
2022/06/21 04:30:25;;;;;;;17.42;4.05;;;25.50;95.80;;;;;;5064023;28;20040;-56
2022/06/21 04:33:01;;;;;;;13.35;3.78;;;25.50;95.80;;;;;;5066806;28;20090;-55
2022/06/21 04:35:41;;;;;;;15.02;4.18;;;25.50;96.00;;;;;;5066294;28;20020;-57
2022/06/21 04:38:16;;;;;;;13.10;4.00;;;25.50;95.80;;;;;;5066737;28;20193;-56
2022/06/21 04:40:59;;;;;;;15.30;3.95;;;25.50;95.80;;;;;;5066333;28;20239;-59
2022/06/21 04:43:37;;;;;;;15.13;3.95;;;25.40;95.80;;;;;;5066679;28;20044;-56
2022/06/21 04:46:06;;;;;;;15.68;3.92;;;25.50;95.80;;;;;;5066333;28;20025;-55
2022/06/21 04:48:51;;;;;;;13.18;3.50;;;25.40;95.80;;;;;;5066652;28;20062;-55
2022/06/21 04:51:28;;;;;;;15.25;4.00;;;25.40;95.80;;;;;;5066068;28;20305;-54
2022/06/21 04:54:02;;;;;;;12.65;4.18;;;25.40;95.80;;;;;;5066753;28;20047;-58
2022/06/21 04:57:10;;;;;;;15.77;3.25;;;25.40;95.80;;;;;;5066017;28;20375;-54
2022/06/21 04:59:48;;;;;;;13.93;3.60;;;25.40;95.70;;;;;;5066080;28;20280;-55
2022/06/21 05:02:23;;;;;;;14.60;3.60;;;25.40;95.70;;;;;;5065991;28;20076;-53
2022/06/21 05:04:59;;;;;;;13.93;4.38;;;25.50;95.70;;;;;;5065933;28;20045;-53
2022/06/21 05:07:29;;;;;;;16.17;4.10;;;25.40;95.70;;;;;;5066036;28;20048;-52
2022/06/21 05:09:57;;;;;;;10.70;3.30;;;25.40;95.70;;;;;;5065872;28;20064;-49
2022/06/21 05:12:37;;;;;;;14.85;3.88;;;25.40;95.70;;;;;;5065502;28;20096;-55
2022/06/21 05:15:34;;;;;;;12.93;3.30;;;25.40;95.70;;;;;;5065951;28;20028;-57
2022/06/21 05:18:13;;;;;;;13.38;3.30;;;25.40;95.70;;;;;;5065362;28;20032;-56
2022/06/21 05:20:47;;;;;;;15.00;3.72;;;25.40;95.70;;;;;;5065656;28;20160;-51
2022/06/21 05:23:13;;;;;;;16.25;3.90;;;25.40;95.70;;;;;;5065916;28;20115;-50
2022/06/21 05:25:42;;;;;;;16.80;3.80;;;25.40;95.70;;;;;;5065830;28;20025;-50
2022/06/21 05:28:18;;;;;;;16.13;4.13;;;25.40;95.70;;;;;;5065815;28;20027;-49
2022/06/21 05:30:55;;;;;;;15.45;4.07;;;25.40;95.70;;;;;;5065497;28;20378;-52
2022/06/21 05:33:54;;;;;;;11.00;3.20;;;25.30;95.90;;;;;;5065607;28;20021;-55
2022/06/21 05:36:47;;;;;;;12.77;3.63;;;25.30;95.90;;;;;;5065259;28;20073;-55
2022/06/21 05:39:22;;;;;;;15.90;3.90;;;25.30;95.90;;;;;;5054771;28;20056;-54
2022/06/21 05:41:53;;;;;;;11.85;3.72;;;25.30;96.00;;;;;;5065190;28;20048;-50
2022/06/21 05:44:28;;;;;;;13.38;3.70;;;25.30;96.10;;;;;;5065762;28;20363;-54
2022/06/21 05:47:05;;;;;;;13.98;3.83;;;25.30;96.10;;;;;;5065308;28;20025;-58
2022/06/21 05:49:34;;;;;;;21.33;4.00;;;25.30;96.10;;;;;;5065350;28;20371;-53
2022/06/21 05:52:26;;;;;;;12.68;4.05;;;25.30;96.10;;;;;;5065119;28;20366;-56
2022/06/21 05:55:07;;;;;;;11.52;3.83;;;25.30;96.10;;;;;;5057196;28;20040;-54
2022/06/21 05:57:56;;;;;;;11.95;3.78;;;25.30;96.10;;;;;;5065061;28;20017;-55
2022/06/21 06:00:44;;;;;;;14.45;3.60;;;25.30;96.10;;;;;;5064884;28;20053;-53
2022/06/21 06:03:19;;;;;;;12.40;3.55;;;25.30;96.10;;;;;;5065197;28;20025;-55
2022/06/21 06:05:48;;;;;;;13.63;3.15;;;25.30;96.10;;;;;;5064842;28;20033;-53
2022/06/21 06:08:30;;;;;;;16.13;3.50;;;25.30;96.10;;;;;;5065284;28;20062;-53
2022/06/21 06:11:00;;;;;;;17.90;3.70;;;25.30;96.10;;;;;;5064770;28;20033;-56
2022/06/21 06:13:32;;;;;;;13.55;3.20;;;25.30;96.10;;;;;;5064963;28;20024;-57
2022/06/21 06:16:08;;;;;;;11.82;3.10;;;25.30;96.10;;;;;;5064737;28;20020;-54
2022/06/21 06:18:50;;;;;;;15.90;3.28;;;25.30;96.10;;;;;;5064863;28;20013;-58
2022/06/21 06:21:31;;;;;;;11.98;3.28;;;25.30;96.10;;;;;;5064692;28;20029;-56
2022/06/21 06:24:12;;;;;;;11.80;3.10;;;25.30;96.00;;;;;;5064927;28;20174;-58
2022/06/21 06:26:42;;;;;;;13.20;2.83;;;25.30;96.00;;;;;;5064450;28;20067;-53
2022/06/21 06:29:26;;;;;;;11.43;2.80;;;25.40;96.00;;;;;;5064952;28;20040;-55
2022/06/21 06:32:03;;;;;;;11.50;3.17;;;25.40;96.00;;;;;;5064434;28;20036;-54
2022/06/21 06:34:33;;;;;;;11.60;3.10;;;25.40;95.90;;;;;;5064395;28;20028;-54
2022/06/21 06:37:07;;;;;;;14.20;3.28;;;25.30;95.90;;;;;;5064362;28;20059;-54
2022/06/21 06:39:36;;;;;;;13.55;2.92;;;25.30;95.90;;;;;;5064412;28;20021;-51
2022/06/21 06:42:15;;;;;;;14.40;2.80;;;25.30;95.90;;;;;;5063172;28;20016;-52
2022/06/21 06:45:01;;;;;;;11.25;2.53;;;25.30;95.90;;;;;;5063832;28;20037;-55
2022/06/21 06:47:36;;;;;;;13.48;3.25;;;25.30;95.90;;;;;;5064189;28;20047;-53
2022/06/21 06:50:18;;;;;;;12.40;2.63;;;25.30;95.90;;;;;;5063217;28;20021;-56
2022/06/21 06:52:54;;;;;;;15.07;3.42;;;25.30;95.90;;;;;;5064199;28;20021;-53
2022/06/21 06:55:35;;;;;;;11.27;2.80;;;25.30;95.90;;;;;;5063876;28;20025;-55
2022/06/21 06:58:13;;;;;;;8.18;2.88;;;25.30;95.90;;;;;;5064212;28;20028;-55
2022/06/21 07:01:23;;;;;;;12.73;2.63;;;25.30;95.90;;;;;;5063795;28;20396;-55
2022/06/21 07:03:59;;;;;;;11.30;2.45;;;25.30;95.90;;;;;;5064213;28;20024;-55
2022/06/21 07:06:47;;;;;;;8.40;2.90;;;25.30;95.90;;;;;;5063923;28;20052;-54
2022/06/21 07:09:54;;;;;;;12.40;3.03;;;25.30;96.00;;;;;;5064251;28;20028;-55
2022/06/21 07:12:30;;;;;;;9.88;2.72;;;25.30;95.90;;;;;;5022122;28;20049;-57
2022/06/21 07:15:00;;;;;;;11.20;2.90;;;25.30;96.00;;;;;;5022329;28;20018;-54
2022/06/21 07:17:38;;;;;;;14.95;3.13;;;25.30;96.00;;;;;;5046491;28;20041;-57
2022/06/21 07:20:36;;;;;;;10.57;2.55;;;25.30;96.00;;;;;;5063724;28;20088;-54
2022/06/21 07:23:11;;;;;;;13.55;2.80;;;25.30;96.00;;;;;;5063635;28;20053;-53
2022/06/21 07:25:42;;;;;;;11.27;2.63;;;25.30;96.00;;;;;;5063676;28;20032;-53
2022/06/21 07:28:42;;;;;;;13.55;2.90;;;25.30;96.00;;;;;;5063800;28;20017;-53
2022/06/21 07:31:32;;;;;;;11.20;2.90;;;25.30;96.10;;;;;;5063444;28;20045;-55
2022/06/21 07:34:10;;;;;;;8.95;2.67;;;25.30;96.10;;;;;;5063830;28;20036;-54
2022/06/21 07:36:46;;;;;;;13.55;2.60;;;25.40;96.10;;;;;;5063780;28;20289;-54
2022/06/21 07:39:31;;;;;;;14.00;2.67;;;25.30;96.00;;;;;;5063962;28;20032;-55
2022/06/21 07:42:06;;;;;;;8.73;2.60;;;25.30;96.10;;;;;;5063584;28;20048;-55
2022/06/21 07:44:44;;;;;;;11.85;2.70;;;25.30;96.10;;;;;;5063491;28;20104;-55
2022/06/21 07:47:27;;;;;;;9.18;2.53;;;25.30;96.10;;;;;;5063388;28;20084;-54
2022/06/21 07:50:14;;;;;;;16.25;2.90;;;25.30;96.10;;;;;;5063406;28;20067;-53
2022/06/21 07:52:49;;;;;;;11.70;2.47;;;25.30;96.10;;;;;;5063569;28;20056;-53
2022/06/21 07:55:25;;;;;;;13.25;2.50;;;25.30;96.00;;;;;;5063299;28;20025;-53
2022/06/21 07:57:59;;;;;;;10.77;2.67;;;25.30;96.10;;;;;;5063804;28;20170;-53
2022/06/21 08:06:41;;;;;;;17.55;2.65;;;25.30;96.10;;;;;;5063939;28;20049;-58
2022/06/21 08:09:13;;;;;;;13.35;2.85;;;25.30;96.10;;;;;;5067510;28;20028;-57
2022/06/21 08:11:43;;;;;;;13.05;2.40;;;25.30;96.10;;;;;;5066976;28;20033;-55
2022/06/21 08:14:11;;;;;;;12.85;2.72;;;25.30;96.10;;;;;;5066843;28;20067;-55
2022/06/21 08:16:47;;;;;;;12.00;2.70;;;25.30;96.20;;;;;;5067082;28;20029;-55
2022/06/21 08:19:29;;;;;;;9.93;2.42;;;25.30;96.20;;;;;;5067535;28;20016;-54
2022/06/21 08:22:04;;;;;;;12.85;3.00;;;25.30;96.10;;;;;;5067067;28;20047;-55
2022/06/21 08:24:42;;;;;;;13.13;2.38;;;25.30;96.10;;;;;;5066887;28;20220;-55
2022/06/21 08:27:27;;;;;;;12.00;2.53;;;25.30;96.10;;;;;;5066696;28;20033;-53
2022/06/21 08:30:14;;;;;;;13.93;2.60;;;25.30;96.10;;;;;;5066843;28;20044;-55
2022/06/21 08:33:11;;;;;;;10.63;2.30;;;25.30;96.10;;;;;;5066843;28;20367;-56
2022/06/21 08:35:48;;;;;;;12.27;2.72;;;25.30;96.10;;;;;;5066722;28;20032;-53
2022/06/21 08:38:31;;;;;;;13.75;2.38;;;25.30;96.10;;;;;;5066846;28;20076;-53
2022/06/21 08:41:03;;;;;;;13.07;2.85;;;25.30;96.20;;;;;;5066779;28;20029;-54
2022/06/21 08:44:14;;;;;;;8.90;2.35;;;25.30;96.20;;;;;;5066832;28;20328;-55
2022/06/21 08:47:18;;;;;;;11.07;2.35;;;25.30;96.20;;;;;;5050572;28;20273;-51
2022/06/21 08:49:44;;;;;;;11.80;2.83;;;25.30;96.10;;;;;;5066519;28;20209;-54
2022/06/21 08:52:23;;;;;;;11.88;3.00;;;25.30;96.20;;;;;;5066095;28;20043;-54
2022/06/21 08:55:24;;;;;;;16.83;2.80;;;25.30;96.20;;;;;;5066251;28;20088;-57
2022/06/21 08:58:13;;;;;;;14.15;2.92;;;25.30;96.20;;;;;;5066370;28;20040;-53
2022/06/21 09:01:03;;;;;;;13.55;2.50;;;25.30;96.20;;;;;;5065964;28;20110;-55
2022/06/21 09:03:51;;;;;;;7.60;2.20;;;25.30;96.30;;;;;;5066297;28;20032;-54
2022/06/21 09:06:30;;;;;;;8.75;2.42;;;25.30;96.30;;;;;;5066106;28;20033;-54
2022/06/21 09:09:18;;;;;;;12.63;2.70;;;25.30;96.20;;;;;;5066176;28;20097;-52
2022/06/21 09:12:03;;;;;;;10.68;2.47;;;25.30;96.50;;;;;;5065615;28;20033;-55
2022/06/21 09:14:48;;;;;;;10.13;2.25;;;25.30;96.20;;;;;;5065919;28;20040;-53
2022/06/21 09:17:39;;;;;;;11.55;2.35;;;25.30;96.20;;;;;;5065855;28;20209;-57
2022/06/21 09:20:42;;;;;;;13.23;2.55;;;25.30;96.10;;;;;;5066082;28;20021;-55
2022/06/21 09:23:33;;;;;;;10.90;2.22;;;25.30;96.20;;;;;;5044842;28;20029;-56
2022/06/21 09:26:26;;;;;;;13.82;2.63;;;25.20;96.20;;;;;;5065632;28;20020;-55
2022/06/21 09:29:02;;;;;;;13.82;2.92;;;25.20;96.30;;;;;;5066019;28;20193;-55
2022/06/21 09:31:40;;;;;;;10.30;2.92;;;25.30;96.20;;;;;;5065527;28;20029;-54
2022/06/21 09:34:25;;;;;;;10.95;2.47;;;25.30;96.20;;;;;;5065957;28;20017;-53
2022/06/21 09:37:19;;;;;;;12.98;2.47;;;25.30;96.20;;;;;;5065705;28;20051;-54
2022/06/21 09:40:10;;;;;;;12.38;2.58;;;25.30;96.20;;;;;;5065570;28;20028;-55
2022/06/21 09:42:47;;;;;;;11.88;2.58;;;25.30;96.20;;;;;;5065296;28;20017;-54
2022/06/21 09:45:18;;;;;;;15.85;2.90;;;25.20;96.20;;;;;;5065372;28;20028;-55
2022/06/21 09:48:07;;;;;;;13.88;2.60;;;25.20;96.20;;;;;;5059177;28;20035;-54
2022/06/21 09:50:34;;;;;;;9.73;2.10;;;25.20;96.30;;;;;;5048016;28;20325;-57
2022/06/21 09:53:16;;;;;;;11.20;2.35;;;25.20;96.40;;;;;;5045446;28;20026;-54
2022/06/21 09:56:04;;;;;;;11.10;2.67;;;25.20;96.30;;;;;;5045184;28;20084;-55
2022/06/21 09:58:40;;;;;;;9.68;2.53;;;25.20;96.30;;;;;;5045317;28;20071;-54
2022/06/21 10:01:30;;;;;;;12.63;2.38;;;25.10;96.30;;;;;;5044916;28;20076;-52
2022/06/21 10:04:30;;;;;;;14.00;2.15;;;25.10;96.40;;;;;;5045439;28;20025;-55
2022/06/21 10:07:40;;;;;;;13.75;2.88;;;25.20;96.30;;;;;;5044893;28;20120;-52
2022/06/21 10:10:32;;;;;;;10.00;2.33;;;25.20;96.30;;;;;;5023166;28;20037;-53
2022/06/21 10:13:20;;;;;;;12.18;2.50;;;25.20;96.30;;;;;;5028537;28;20043;-57
2022/06/21 10:16:14;;;;;;;17.98;2.30;;;25.10;96.30;;;;;;5045118;28;20049;-57
2022/06/21 10:19:15;;;;;;;12.43;2.38;;;25.10;96.30;;;;;;5044985;28;20045;-54
2022/06/21 10:21:51;;;;;;;13.45;2.42;;;25.10;96.20;;;;;;5033348;28;20088;-55
2022/06/21 10:24:59;;;;;;;13.45;3.00;;;25.10;96.30;;;;;;5045213;28;20014;-52
2022/06/21 10:27:47;;;;;;;11.88;1.77;;;25.10;96.20;;;;;;5044629;28;20040;-51
2022/06/21 10:30:22;;;;;;;7.95;1.80;;;25.10;96.30;;;;;;5044474;28;20080;-54
2022/06/21 10:33:16;;;;;;;9.32;2.05;;;25.10;96.30;;;;;;5044474;28;20241;-55
2022/06/21 10:36:00;;;;;;;10.32;2.28;;;25.00;96.30;;;;;;5044432;28;20025;-51
2022/06/21 10:38:58;;;;;;;12.27;2.35;;;25.10;96.30;;;;;;5044551;28;20018;-54
2022/06/21 10:42:46;;;;;;;14.32;2.30;;;25.10;96.30;;;;;;5044406;28;20021;-55
2022/06/21 10:44:55;;;;;;;9.00;1.77;;;25.10;96.20;;;;;;5044336;28;20252;-54
2022/06/21 10:47:37;;;;;;;13.85;2.35;;;25.10;96.10;;;;;;5044313;28;20026;-52
2022/06/21 10:50:21;;;;;;;14.52;1.90;;;25.10;96.10;;;;;;5044024;28;20029;-53
2022/06/21 10:52:56;;;;;;;12.77;2.03;;;25.10;96.00;;;;;;5044307;28;20029;-54
2022/06/21 10:55:32;;;;;;;10.77;2.33;;;25.10;96.00;;;;;;5043989;28;20043;-52
2022/06/21 10:58:58;;;;;;;11.77;1.80;;;25.10;96.00;;;;;;5044431;28;20034;-54
2022/06/21 11:01:45;;;;;;;8.77;2.13;;;25.10;96.00;;;;;;5026264;28;20120;-50
2022/06/21 11:04:38;;;;;;;11.43;2.53;;;25.10;95.90;;;;;;5044316;28;20068;-57
2022/06/21 11:07:25;;;;;;;11.10;2.22;;;25.10;95.90;;;;;;5044049;28;20084;-59
2022/06/21 11:10:05;;;;;;;10.40;2.40;;;25.10;95.90;;;;;;5043943;28;20025;-55
2022/06/21 11:16:07;;;;;;;13.65;2.42;;;25.10;95.90;;;;;;5053752;28;20085;-53
2022/06/21 11:18:47;;;;;;;13.43;2.40;;;25.10;95.90;;;;;;5043598;28;20025;-56
2022/06/21 11:21:16;;;;;;;14.63;2.42;;;25.10;95.90;;;;;;5043760;28;20248;-56
2022/06/21 11:24:15;;;;;;;10.10;2.70;;;25.10;95.90;;;;;;5043990;28;20244;-57
2022/06/21 11:27:07;;;;;;;9.93;2.60;;;25.10;95.90;;;;;;5039724;28;20041;-54
2022/06/21 11:30:01;;;;;;;13.35;2.42;;;25.10;95.80;;;;;;5043811;28;20037;-51
2022/06/21 11:32:45;;;;;;;8.75;2.45;;;25.10;95.90;;;;;;5043755;28;20033;-60
2022/06/21 11:35:31;;;;;;;9.32;2.28;;;25.10;95.90;;;;;;5043951;28;20025;-56
2022/06/21 11:38:13;;;;;;;9.50;2.45;;;25.10;95.80;;;;;;5047812;28;20088;-56
2022/06/21 11:40:46;;;;;;;7.88;2.30;;;25.10;95.80;;;;;;5047606;28;20059;-58
2022/06/21 11:43:49;;;;;;;10.00;2.40;;;25.10;95.80;;;;;;5061123;28;20032;-53
2022/06/21 11:46:33;;;;;;;;;;;25.10;95.70;;;;;;5048003;28;20190;-57
2022/06/21 11:49:48;;;;;;;14.98;2.95;;;25.10;95.60;;;;;;5062805;28;19948;-53
2022/06/21 11:52:43;;;;;;;14.75;2.83;;;25.10;95.50;;;;;;5037838;28;20465;-55
2022/06/21 11:55:15;;;;;;;14.57;2.92;;;25.10;95.50;;;;;;5013543;28;20092;-54
2022/06/21 11:57:53;;;;;;;13.02;3.33;;;25.10;95.50;;;;;;5058477;28;20185;-56
2022/06/21 12:00:27;;;;;;;16.52;3.58;;;25.10;95.50;;;;;;5067220;28;20049;-53
2022/06/21 12:02:56;;;;;;;14.45;3.63;;;25.10;95.50;;;;;;5067429;28;20061;-53
2022/06/21 12:05:43;;;;;;;13.75;3.17;;;25.10;95.40;;;;;;5067604;28;20115;-56
2022/06/21 12:08:26;;;;;;;14.77;3.42;;;25.20;95.40;;;;;;5067142;28;20028;-51
2022/06/21 12:11:15;;;;;;;11.45;3.30;;;25.20;95.40;;;;;;5066647;28;20220;-54
2022/06/21 12:14:06;;;;;;;11.35;3.53;;;25.20;95.40;;;;;;5067069;28;20036;-55
2022/06/21 12:17:05;;;;;;;15.20;4.47;;;25.20;95.40;;;;;;5066629;28;20209;-52
2022/06/21 12:19:37;;;;;;;15.25;3.92;;;25.20;95.50;;;;;;5063998;28;20074;-52
2022/06/21 12:22:04;;;;;;;15.10;4.25;;;25.20;95.50;;;;;;5066698;28;20262;-55
2022/06/21 12:24:31;;;;;;;13.23;3.65;;;25.20;95.60;;;;;;5066665;28;20021;-51
2022/06/21 12:26:57;;;;;;;10.10;3.58;;;25.20;95.70;;;;;;5066439;28;20063;-53
2022/06/21 12:29:24;;;;;;;10.57;3.50;;;25.20;95.70;;;;;;5066940;28;20052;-56
2022/06/21 12:31:56;;;;;;;12.10;3.72;;;25.10;95.80;;;;;;5066321;28;20021;-53
2022/06/21 12:35:07;;;;;;;14.33;3.57;;;25.20;95.80;;;;;;5066778;28;20240;-53
2022/06/21 12:37:53;;;;;;;14.40;3.65;;;25.20;95.80;;;;;;5055903;28;20260;-53
2022/06/21 12:40:33;;;;;;;13.68;3.85;;;25.20;95.90;;;;;;5066367;28;20139;-55
2022/06/21 12:42:59;;;;;;;13.00;3.40;;;25.20;95.90;;;;;;5066696;28;20092;-54
2022/06/21 12:45:40;;;;;;;14.60;3.50;;;25.20;95.90;;;;;;5066251;28;20183;-50
2022/06/21 12:48:16;;;;;;;15.50;3.67;;;25.20;96.00;;;;;;5064891;28;20036;-54
2022/06/21 12:51:22;;;;;;;15.90;4.18;;;25.20;96.00;;;;;;5065942;28;20032;-56
2022/06/21 12:54:23;;;;;;;13.75;3.90;;;25.30;96.10;;;;;;5066296;28;20017;-55
2022/06/21 12:57:12;;;;;;;21.40;3.75;;;25.30;96.10;;;;;;5066090;28;20372;-53
2022/06/21 13:00:03;;;;;;;18.05;3.50;;;25.30;96.40;;;;;;5045743;28;20057;-54
2022/06/21 13:02:45;;;;;;;15.52;4.40;;;25.30;96.20;;;;;;5065560;28;20025;-54
2022/06/21 13:05:31;;;;;;;12.07;4.50;;;25.30;96.20;;;;;;5066117;28;20024;-53
2022/06/21 13:08:30;;;;;;;13.52;4.00;;;25.30;96.20;;;;;;5065985;28;20029;-51
2022/06/21 13:11:08;;;;;;;17.55;4.20;;;25.30;96.20;;;;;;5049590;28;20024;-53
2022/06/21 13:14:05;;;;;;;14.63;4.00;;;25.30;96.30;;;;;;5066200;28;20025;-54
2022/06/21 13:16:43;;;;;;;17.95;5.15;;;25.30;96.30;;;;;;5065781;28;20017;-51
2022/06/21 13:19:27;;;;;;;19.38;4.88;;;25.30;96.30;;;;;;5066399;28;20044;-55
2022/06/21 13:22:31;;;;;;;17.02;4.65;;;25.30;96.30;;;;;;5065736;28;20325;-54
2022/06/21 13:25:09;;;;;;;22.77;5.25;;;25.40;96.30;;;;;;5065847;28;20273;-51
2022/06/21 13:28:19;;;;;;;15.40;5.03;;;25.40;96.40;;;;;;5065915;28;20029;-51
2022/06/21 13:30:54;;;;;;;19.33;6.25;;;25.40;96.40;;;;;;5065660;28;20063;-52
2022/06/21 13:33:47;;;;;;;17.33;5.05;;;25.40;96.30;;;;;;5065669;28;20327;-54
2022/06/21 13:36:46;;;;;;;18.48;4.88;;;25.40;96.40;;;;;;5048989;28;20033;-51
2022/06/21 13:39:23;;;;;;;15.07;4.40;;;25.40;96.40;;;;;;5065873;28;20024;-49
2022/06/21 13:45:03;;;;;;;16.65;4.30;;;25.50;96.60;;;;;;5065219;28;20267;-53
2022/06/21 13:47:45;;;;;;;15.90;3.92;;;25.40;96.50;;;;;;5065354;28;20025;-56
2022/06/21 13:50:35;;;;;;;13.88;3.50;;;25.30;96.30;;;;;;5065552;28;20288;-57
2022/06/21 13:53:10;;;;;;;12.50;3.08;;;25.40;96.30;;;;;;5065376;28;20036;-51
2022/06/21 13:55:53;;;;;;;16.80;3.80;;;25.40;96.10;;;;;;5065347;28;20024;-51
2022/06/21 13:58:45;;;;;;;;;;;25.30;96.30;;;;;;5064994;28;20029;-46
2022/06/21 14:01:24;;;;;;;18.95;4.22;;;25.40;96.30;;;;;;5061248;28;19913;-54